Time;durP1;ratioP1;P1;durP2;ratioP2;P2;SDS_P1;SDS_P2;PMS_P1;PMS_P2;Temp;Humidity;BMP_temperature;BMP_pressure;BME280_temperature;BME280_humidity;BME280_pressure;Samples;Min_cycle;Max_cycle;Signal;HPM_P1;HPM_P2
2023/05/14 00:00:43;;;;;;;4.50;3.07;;;;;;;14.72;68.36;101845.81;5058791;28;20029;-92
2023/05/14 00:03:09;;;;;;;3.30;3.00;;;;;;;14.69;68.21;101843.25;5056535;28;20035;-92
2023/05/14 00:05:37;;;;;;;3.67;3.10;;;;;;;14.65;68.48;101840.66;5057225;28;20017;-92
2023/05/14 00:08:03;;;;;;;3.17;2.88;;;;;;;14.53;68.65;101827.78;5056785;28;20013;-91
2023/05/14 00:10:28;;;;;;;3.50;3.10;;;;;;;14.55;68.29;101828.63;5056676;28;20029;-91
2023/05/14 00:12:53;;;;;;;3.80;3.23;;;;;;;14.53;68.70;101833.00;5056127;28;20051;-92
2023/05/14 00:15:19;;;;;;;4.00;3.27;;;;;;;14.48;68.81;101825.25;5056527;28;20064;-92
2023/05/14 00:17:44;;;;;;;3.60;3.27;;;;;;;14.47;68.92;101825.28;5056825;28;20101;-91
2023/05/14 00:20:11;;;;;;;4.17;3.37;;;;;;;14.42;69.13;101827.97;5056641;28;20036;-91
2023/05/14 00:22:36;;;;;;;;;;;;;;;14.40;69.50;101828.88;5056905;28;20017;-92
2023/05/14 00:25:02;;;;;;;5.53;3.60;;;;;;;14.32;69.34;101827.25;5056805;28;20010;-92
2023/05/14 00:27:27;;;;;;;4.07;3.10;;;;;;;14.24;69.96;101825.66;5057290;28;20021;-92
2023/05/14 00:29:52;;;;;;;3.07;2.77;;;;;;;14.17;70.68;101824.88;5057028;28;20040;-92
2023/05/14 00:32:17;;;;;;;2.77;2.53;;;;;;;14.08;70.95;101824.97;5056108;28;20388;-92
2023/05/14 00:34:43;;;;;;;2.60;2.40;;;;;;;14.02;71.09;101829.41;5056288;28;20122;-92
2023/05/14 00:37:08;;;;;;;3.10;2.67;;;;;;;13.95;71.92;101813.88;5055868;28;20035;-92
2023/05/14 00:39:33;;;;;;;3.27;2.50;;;;;;;13.92;70.77;101817.38;5055985;28;20120;-92
2023/05/14 00:41:59;;;;;;;3.20;2.90;;;;;;;13.89;73.00;101815.69;5056386;28;20052;-91
2023/05/14 00:44:24;;;;;;;5.00;3.27;;;;;;;13.83;75.22;101814.91;5056564;28;20025;-92
2023/05/14 00:46:49;;;;;;;5.23;3.63;;;;;;;13.74;73.08;101806.28;5056127;28;20032;-92
2023/05/14 00:49:16;;;;;;;4.93;3.67;;;;;;;13.70;73.05;101807.25;5060571;28;20355;-91
2023/05/14 00:51:45;;;;;;;3.45;3.00;;;;;;;13.65;71.99;101801.19;5058725;28;20100;-92
2023/05/14 00:54:12;;;;;;;3.50;3.00;;;;;;;13.65;72.14;101801.19;5036968;28;20040;-92
2023/05/14 00:56:37;;;;;;;4.82;3.80;;;;;;;13.60;73.61;101805.63;5035890;28;20053;-92
2023/05/14 00:59:03;;;;;;;4.80;3.60;;;;;;;13.55;72.90;101800.47;5035966;28;20049;-92
2023/05/14 01:01:28;;;;;;;4.47;3.20;;;;;;;13.51;72.27;101792.72;5036439;28;20028;-92
2023/05/14 01:03:56;;;;;;;4.20;3.20;;;;;;;13.51;72.06;101803.16;5036265;28;20021;-92
2023/05/14 01:06:39;;;;;;;3.88;3.10;;;;;;;13.49;72.18;101800.53;5035660;28;20539;-91
2023/05/14 01:09:16;;;;;;;4.32;3.20;;;;;;;13.49;72.41;101807.50;5035626;28;20034;-92
2023/05/14 01:11:54;;;;;;;4.28;3.28;;;;;;;13.43;72.44;101806.69;5035722;28;20025;-90
2023/05/14 01:14:24;;;;;;;4.25;3.47;;;;;;;13.42;72.24;101806.72;5035864;28;20075;-92
2023/05/14 01:16:54;;;;;;;5.10;2.95;;;;;;;13.38;73.14;101807.59;5037135;28;20109;-92
2023/05/14 01:19:31;;;;;;;3.40;3.00;;;;;;;13.35;72.77;101803.28;5055506;23;20048;-92
2023/05/14 01:21:56;;;;;;;3.33;2.80;;;;;;;13.29;72.66;101801.59;5045424;28;20032;-92
2023/05/14 01:24:21;;;;;;;3.40;3.03;;;;;;;13.24;73.60;101797.31;5059050;28;20017;-91
2023/05/14 01:26:47;;;;;;;3.33;2.87;;;;;;;13.21;74.48;101799.97;5056037;28;20028;-92
2023/05/14 01:29:21;;;;;;;3.83;3.10;;;;;;;13.19;73.09;101801.72;5054766;28;20021;-91
2023/05/14 01:31:51;;;;;;;4.25;3.20;;;;;;;13.16;73.53;101799.16;5035221;28;20030;-92
2023/05/14 01:34:21;;;;;;;3.30;3.00;;;;;;;13.08;73.55;101787.06;5035134;28;20031;-92
2023/05/14 01:36:48;;;;;;;4.15;3.00;;;;;;;13.06;73.27;101785.34;5035186;28;20030;-91
2023/05/14 01:39:14;;;;;;;4.30;3.30;;;;;;;13.01;73.11;101793.22;5034927;28;20029;-91
2023/05/14 01:41:41;;;;;;;3.93;3.33;;;;;;;13.00;73.56;101788.03;5035335;28;20025;-92
2023/05/14 01:44:07;;;;;;;;;;;;;;;12.96;73.59;101790.66;5035027;28;20025;-91
2023/05/14 01:46:33;;;;;;;3.95;3.30;;;;;;;12.93;73.99;101782.03;5034809;28;20412;-92
2023/05/14 01:48:59;;;;;;;3.80;3.40;;;;;;;12.80;73.94;101769.13;5035064;28;20064;-92
2023/05/14 01:51:27;;;;;;;3.80;2.80;;;;;;;12.82;75.06;101792.53;5035110;28;20028;-91
2023/05/14 01:53:52;;;;;;;5.20;3.30;;;;;;;12.77;79.73;101795.19;5034907;28;20030;-91
2023/05/14 01:56:20;;;;;;;6.20;4.10;;;;;;;12.71;77.37;101795.25;5034428;28;20049;-92
2023/05/14 01:58:46;;;;;;;4.15;3.67;;;;;;;12.66;77.45;101799.63;5035264;28;20390;-92
2023/05/14 02:01:11;;;;;;;6.93;4.87;;;;;;;12.57;78.98;101791.91;5034509;28;20037;-92
2023/05/14 02:03:36;;;;;;;5.33;4.00;;;;;;;12.51;76.75;101788.44;5035315;28;20021;-92
2023/05/14 02:06:05;;;;;;;4.40;3.53;;;;;;;12.51;77.01;101788.44;5034391;28;20428;-92
2023/05/14 02:08:30;;;;;;;4.60;3.47;;;;;;;12.43;76.72;101771.19;5035007;28;20034;-92
2023/05/14 02:10:55;;;;;;;6.40;4.13;;;;;;;12.40;80.75;101768.59;5034818;28;20356;-92
2023/05/14 02:13:21;;;;;;;5.30;3.70;;;;;;;12.33;80.10;101759.97;5035090;28;20040;-92
2023/05/14 02:15:46;;;;;;;4.30;3.60;;;;;;;12.40;77.01;101784.22;5048515;23;20044;-92
2023/05/14 02:18:11;;;;;;;5.13;3.77;;;;;;;12.39;76.53;101774.69;5091924;28;20127;-92
2023/05/14 02:20:39;;;;;;;4.77;3.70;;;;;;;12.41;76.17;101779.00;5094687;28;20032;-91
2023/05/14 02:23:20;;;;;;;6.38;3.90;;;;;;;12.36;76.41;101772.97;5091696;28;20039;-92
2023/05/14 02:25:45;;;;;;;5.93;3.90;;;;;;;12.34;76.53;101766.91;5094785;28;20081;-92
2023/05/14 02:28:10;;;;;;;6.60;3.60;;;;;;;12.34;75.96;101762.56;5094907;28;20028;-91
2023/05/14 02:30:35;;;;;;;4.70;3.70;;;;;;;12.39;76.47;101765.13;5098633;28;20479;-92
2023/05/14 02:33:01;;;;;;;4.23;3.70;;;;;;;12.34;77.05;101761.72;5115027;28;20016;-92
2023/05/14 02:35:46;;;;;;;4.20;3.50;;;;;;;12.34;77.05;101764.31;5115865;28;20054;-92
2023/05/14 02:38:11;;;;;;;4.47;3.53;;;;;;;12.27;77.37;101749.63;5118746;28;20036;-92
2023/05/14 02:40:37;;;;;;;4.83;3.60;;;;;;;12.36;76.15;101778.19;5118853;28;20106;-92
2023/05/14 02:43:14;;;;;;;5.10;3.80;;;;;;;12.32;76.58;101766.94;5118432;28;20494;-92
2023/05/14 02:45:39;;;;;;;5.90;4.05;;;;;;;12.26;76.78;101758.31;5132295;28;20106;-92
2023/05/14 02:48:05;;;;;;;5.03;3.73;;;;;;;12.27;76.83;101768.69;5125512;28;20019;-92
2023/05/14 02:50:30;;;;;;;5.50;3.97;;;;;;;12.28;77.05;101778.22;5119404;28;20479;-92
2023/05/14 02:52:55;;;;;;;4.80;3.73;;;;;;;12.20;77.26;101761.81;5119162;28;20049;-92
2023/05/14 02:55:42;;;;;;;3.30;2.93;;;;;;;12.24;77.53;101775.66;5118799;28;20026;-92
2023/05/14 02:58:11;;;;;;;4.45;3.50;;;;;;;12.09;78.78;101759.28;5079007;28;20034;-91
2023/05/14 03:00:36;;;;;;;6.07;4.32;;;;;;;12.08;79.49;101767.09;5081403;28;20104;-92
2023/05/14 03:03:01;;;;;;;10.00;5.73;;;;;;;11.94;82.94;101757.63;5077737;28;20064;-91
2023/05/14 03:05:27;;;;;;;8.27;5.37;;;;;;;11.87;82.69;101756.78;5078302;28;20111;-92
2023/05/14 03:07:54;;;;;;;10.23;6.07;;;;;;;11.83;85.08;101757.66;5077943;28;20070;-92
2023/05/14 03:10:25;;;;;;;9.95;6.38;;;;;;;11.80;83.63;101765.50;5077412;28;20039;-91
2023/05/14 03:13:05;;;;;;;14.40;8.38;;;;;;;11.66;86.09;101759.50;5077831;28;20024;-91
2023/05/14 03:15:31;;;;;;;10.75;6.70;;;;;;;11.63;81.99;101763.00;5078163;28;20040;-92
2023/05/14 03:17:56;;;;;;;11.63;7.30;;;;;;;11.59;85.31;101759.56;5077453;28;20036;-91
2023/05/14 03:20:25;;;;;;;9.83;6.07;;;;;;;11.57;82.77;101758.69;5077334;28;20048;-91
2023/05/14 03:22:51;;;;;;;8.75;5.40;;;;;;;11.55;82.13;101757.81;5077875;28;20422;-91
2023/05/14 03:25:16;;;;;;;7.00;4.93;;;;;;;11.57;81.01;101753.50;5077436;28;20021;-92
2023/05/14 03:27:49;;;;;;;7.30;4.87;;;;;;;11.58;80.69;101751.75;5077538;28;20491;-92
2023/05/14 03:30:15;;;;;;;6.55;4.70;;;;;;;11.58;80.49;101746.53;5077225;28;20021;-92
2023/05/14 03:32:41;;;;;;;8.20;4.70;;;;;;;11.53;81.55;101730.13;5077037;28;20028;-91
2023/05/14 03:35:08;;;;;;;5.80;4.25;;;;;;;11.59;80.69;101753.47;5077327;28;20099;-92
2023/05/14 03:37:33;;;;;;;8.17;5.10;;;;;;;11.56;83.61;101750.88;5077404;28;20022;-91
2023/05/14 03:39:58;;;;;;;7.17;4.77;;;;;;;11.51;82.27;101763.91;5076101;28;20028;-92
2023/05/14 03:45:08;;;;;;;5.25;4.00;;;;;;;11.44;81.97;101746.63;5077241;28;20090;-91
2023/05/14 03:47:33;;;;;;;9.43;6.17;;;;;;;11.32;85.00;101737.13;5076414;28;20029;-92
2023/05/14 03:49:58;;;;;;;12.50;6.83;;;;;;;11.26;87.85;101739.75;5077248;28;20060;-91
2023/05/14 03:52:24;;;;;;;14.83;8.30;;;;;;;11.25;86.74;101754.50;5083632;28;20020;-92
2023/05/14 03:54:49;;;;;;;16.33;9.40;;;;;;;11.17;89.42;101751.03;5117861;28;20479;-92
2023/05/14 03:57:14;;;;;;;15.67;8.97;;;;;;;11.06;90.95;101743.28;5118076;28;20024;-91
2023/05/14 03:59:40;;;;;;;15.10;8.60;;;;;;;11.10;88.99;101757.13;5118257;28;20094;-92
2023/05/14 04:02:08;;;;;;;16.27;9.20;;;;;;;11.02;91.98;101748.50;5118670;28;20075;-92
2023/05/14 04:04:36;;;;;;;18.52;11.25;;;;;;;10.88;93.66;101738.13;5118462;28;20086;-92
2023/05/14 04:07:04;;;;;;;16.23;9.32;;;;;;;10.89;89.04;101745.06;5121579;28;20027;-92
2023/05/14 04:09:30;;;;;;;14.68;8.65;;;;;;;10.99;89.20;101751.09;5118127;28;20024;-92
2023/05/14 04:11:55;;;;;;;16.10;9.20;;;;;;;10.90;91.92;101736.41;5117180;28;20026;-92
2023/05/14 04:14:26;;;;;;;18.83;11.07;;;;;;;10.84;93.79;101731.22;5116787;28;20011;-92
2023/05/14 04:17:17;;;;;;;19.92;11.23;;;;;;;10.88;94.43;101744.19;5116546;28;20055;-91
2023/05/14 04:19:42;;;;;;;20.50;12.48;;;;;;;10.85;93.07;101749.38;5116509;28;20047;-91
2023/05/14 04:22:08;;;;;;;19.93;12.43;;;;;;;10.79;95.92;101745.06;5116535;28;20035;-92
2023/05/14 04:24:33;;;;;;;21.23;13.90;;;;;;;10.77;96.36;101752.00;5116314;28;20024;-91
2023/05/14 04:26:58;;;;;;;21.20;14.13;;;;;;;10.73;97.46;101754.59;5116478;28;20455;-88
2023/05/14 04:29:24;;;;;;;21.70;13.87;;;;;;;10.71;96.91;101752.03;5115913;28;20093;-90
2023/05/14 04:31:49;;;;;;;20.30;12.97;;;;;;;10.68;96.86;101745.97;5116902;28;20031;-92
2023/05/14 04:34:14;;;;;;;19.90;12.53;;;;;;;10.69;95.61;101750.28;5116205;28;20026;-92
2023/05/14 04:36:40;;;;;;;19.37;11.83;;;;;;;10.62;95.54;101734.72;5116503;28;20069;-91
2023/05/14 04:39:05;;;;;;;18.57;11.13;;;;;;;10.73;97.08;101744.22;5115941;28;20023;-92
2023/05/14 04:41:31;;;;;;;20.80;12.60;;;;;;;10.70;96.10;101742.50;5116247;28;20034;-92
2023/05/14 04:44:00;;;;;;;18.30;10.57;;;;;;;10.71;94.68;101743.34;5116482;28;20027;-92
2023/05/14 04:46:29;;;;;;;20.15;12.35;;;;;;;10.62;97.07;101732.13;5071432;28;20036;-91
2023/05/14 04:48:57;;;;;;;20.67;11.95;;;;;;;10.66;95.56;101732.97;5095643;28;20024;-92
2023/05/14 04:51:23;;;;;;;19.60;11.95;;;;;;;10.73;96.98;101742.50;5095897;28;20474;-91
2023/05/14 04:53:48;;;;;;;21.83;13.50;;;;;;;10.72;98.09;101751.16;5110209;28;20035;-91
2023/05/14 04:56:13;;;;;;;21.00;14.20;;;;;;;10.66;97.50;101744.25;5115856;28;20051;-92
2023/05/14 04:58:39;;;;;;;20.30;12.73;;;;;;;10.63;97.69;101733.84;5115620;28;20019;-92
2023/05/14 05:01:14;;;;;;;22.67;15.33;;;;;;;10.64;98.82;101751.16;5115243;28;20023;-92
2023/05/14 05:03:45;;;;;;;23.50;15.80;;;;;;;10.56;98.75;101739.03;5115259;28;20020;-91
2023/05/14 05:06:10;;;;;;;21.70;12.70;;;;;;;10.62;97.71;101746.84;5115655;28;20031;-92
2023/05/14 05:08:36;;;;;;;19.47;10.77;;;;;;;10.71;96.85;101751.13;5121727;28;20028;-92
2023/05/14 05:11:04;;;;;;;18.93;10.63;;;;;;;10.79;97.50;101752.00;5118294;28;20156;-91
2023/05/14 05:13:31;;;;;;;18.55;10.75;;;;;;;10.72;96.73;101735.56;5116161;28;20020;-93
2023/05/14 05:15:57;;;;;;;20.90;12.65;;;;;;;10.85;98.11;101752.00;5115633;28;20068;-92
2023/05/14 05:18:23;;;;;;;18.08;10.75;;;;;;;10.79;96.10;101733.84;5115335;28;20482;-92
2023/05/14 05:20:48;;;;;;;18.03;10.00;;;;;;;10.98;96.46;101771.00;5114860;28;20024;-92
2023/05/14 05:23:13;;;;;;;19.50;11.10;;;;;;;11.00;96.42;101769.25;5106172;28;20047;-91
2023/05/14 05:25:38;;;;;;;18.00;10.43;;;;;;;11.04;96.00;101773.59;5095541;28;20479;-91
2023/05/14 05:28:16;;;;;;;15.23;8.53;;;;;;;11.09;94.15;101753.66;5095211;28;20031;-92
2023/05/14 05:30:43;;;;;;;11.55;6.78;;;;;;;11.23;93.15;101756.22;5092204;28;20115;-91
2023/05/14 05:33:10;;;;;;;15.02;8.23;;;;;;;11.38;93.31;101770.91;5094054;28;20062;-92
2023/05/14 05:35:35;;;;;;;13.80;7.90;;;;;;;11.39;94.20;101757.03;5094566;28;20020;-91
2023/05/14 05:38:00;;;;;;;14.63;8.30;;;;;;;11.55;94.16;101767.34;5094190;28;20073;-91
2023/05/14 05:40:26;;;;;;;18.57;9.87;;;;;;;11.53;93.88;101763.91;5095172;28;20027;-92
2023/05/14 05:42:51;;;;;;;16.33;9.13;;;;;;;11.58;93.09;101755.22;5095423;28;20106;-91
2023/05/14 05:45:16;;;;;;;17.93;10.20;;;;;;;11.63;93.91;101762.13;5093805;28;20600;-92
2023/05/14 05:47:42;;;;;;;19.37;11.37;;;;;;;11.63;93.69;101763.00;5094234;28;20081;-92
2023/05/14 05:50:08;;;;;;;17.23;9.73;;;;;;;11.66;92.95;101762.97;5094563;28;20095;-92
2023/05/14 05:52:33;;;;;;;18.02;9.50;;;;;;;11.67;92.39;101762.09;5094911;28;20024;-92
2023/05/14 05:54:59;;;;;;;15.10;8.07;;;;;;;11.72;92.96;101767.25;5094339;28;20032;-92
2023/05/14 05:57:26;;;;;;;16.20;9.30;;;;;;;11.74;92.26;101770.72;5094808;28;20024;-92
2023/05/14 05:59:51;;;;;;;16.33;8.80;;;;;;;11.77;93.51;101762.03;5094627;28;20381;-92
2023/05/14 06:02:17;;;;;;;18.33;10.63;;;;;;;11.74;93.71;101771.59;5094361;28;20123;-92
2023/05/14 06:04:42;;;;;;;21.98;13.93;;;;;;;11.71;94.11;101779.41;5094427;28;20036;-91
2023/05/14 06:07:08;;;;;;;22.43;13.80;;;;;;;11.65;94.82;101781.19;5094549;28;20020;-92
2023/05/14 06:09:33;;;;;;;21.83;13.70;;;;;;;11.62;93.68;101783.78;5094496;28;20614;-92
2023/05/14 06:11:58;;;;;;;19.57;11.03;;;;;;;11.64;93.20;101785.53;5097553;28;20027;-92
2023/05/14 06:14:24;;;;;;;16.57;9.20;;;;;;;11.77;92.52;101782.84;5098704;28;20047;-92
2023/05/14 06:16:49;;;;;;;21.50;12.47;;;;;;;11.86;94.07;101788.88;5098089;28;20044;-92
2023/05/14 06:19:14;;;;;;;20.23;11.30;;;;;;;11.94;93.05;101780.16;5098654;28;20036;-93
2023/05/14 06:21:39;;;;;;;21.20;12.17;;;;;;;12.06;92.75;101782.72;5111157;28;20084;-88
2023/05/14 06:24:05;;;;;;;16.67;9.30;;;;;;;12.22;92.58;101782.63;5118166;28;20023;-88
2023/05/14 06:26:30;;;;;;;15.93;9.57;;;;;;;12.57;92.80;101784.94;5118224;28;20042;-88
2023/05/14 06:28:56;;;;;;;21.13;12.53;;;;;;;13.09;89.83;101796.59;5117711;28;20031;-88
2023/05/14 06:31:21;;;;;;;23.37;14.17;;;;;;;13.69;85.35;101797.69;5117874;28;20046;-90
2023/05/14 06:33:46;;;;;;;19.93;12.57;;;;;;;14.12;86.14;101801.44;5117982;28;20424;-89
2023/05/14 06:36:11;;;;;;;22.00;13.80;;;;;;;14.91;80.98;101801.94;5118439;28;20027;-91
2023/05/14 06:38:37;;;;;;;23.00;14.00;;;;;;;15.84;75.25;101793.13;5118136;28;20111;-91
2023/05/14 06:41:02;;;;;;;20.00;12.30;;;;;;;16.16;78.29;101790.66;5118361;28;20015;-90
2023/05/14 06:43:28;;;;;;;18.53;10.50;;;;;;;16.66;76.16;101792.94;5118256;28;20376;-90
2023/05/14 06:45:53;;;;;;;19.67;11.73;;;;;;;17.35;70.95;101792.84;5118259;28;20085;-90
2023/05/14 06:48:18;;;;;;;21.67;13.17;;;;;;;17.47;67.90;101782.91;5118207;28;20028;-90
2023/05/14 06:50:45;;;;;;;21.63;13.20;;;;;;;17.54;66.18;101797.56;5118523;28;20020;-89
2023/05/14 06:53:11;;;;;;;18.52;10.43;;;;;;;17.41;71.07;101795.31;5117814;28;20463;-90
2023/05/14 06:55:36;;;;;;;18.33;10.73;;;;;;;17.69;67.39;101788.38;5118098;28;20069;-92
2023/05/14 06:58:01;;;;;;;16.57;9.40;;;;;;;17.54;70.71;101792.31;5117648;28;20016;-90
2023/05/14 07:00:27;;;;;;;19.13;11.93;;;;;;;17.28;67.61;101794.78;5118130;28;20032;-90
2023/05/14 07:02:53;;;;;;;19.93;12.77;;;;;;;16.58;68.85;101782.66;5117678;28;20081;-91
2023/05/14 07:05:18;;;;;;;20.67;13.53;;;;;;;15.80;72.08;101788.81;5118092;28;20026;-95
2023/05/14 07:10:32;;;;;;;15.25;9.05;;;;;;;15.50;76.09;101785.97;5106785;28;20032;-95
2023/05/14 07:12:57;;;;;;;12.73;7.55;;;;;;;15.75;75.78;101788.91;5120515;28;20024;-89
2023/05/14 07:15:22;;;;;;;14.53;7.80;;;;;;;15.75;75.81;101785.47;5118143;28;20016;-88
2023/05/14 07:17:48;;;;;;;11.13;6.40;;;;;;;15.82;76.45;101770.47;5119279;28;20036;-89
2023/05/14 07:20:25;;;;;;;8.90;5.27;;;;;;;16.06;76.48;101783.00;5119795;28;20114;-89
2023/05/14 07:22:51;;;;;;;12.05;7.38;;;;;;;16.10;75.16;101786.41;5110432;28;20034;-86
2023/05/14 07:25:17;;;;;;;11.57;6.63;;;;;;;16.08;75.39;101780.38;5113129;28;20035;-83
2023/05/14 07:27:42;;;;;;;17.67;10.03;;;;;;;16.11;74.74;101782.91;5115695;28;20024;-83
2023/05/14 07:30:08;;;;;;;16.40;9.50;;;;;;;15.97;74.75;101785.00;5115887;28;20027;-93
2023/05/14 07:32:33;;;;;;;19.80;11.93;;;;;;;15.67;74.11;101787.34;5117118;28;20055;-91
2023/05/14 07:34:58;;;;;;;19.77;11.37;;;;;;;15.42;76.43;101790.50;5116610;28;20055;-92
2023/05/14 07:37:24;;;;;;;14.53;8.40;;;;;;;15.64;77.11;101787.44;5117090;28;20059;-91
2023/05/14 07:39:50;;;;;;;11.63;6.78;;;;;;;15.99;77.47;101783.19;5117034;28;20027;-92
2023/05/14 07:42:16;;;;;;;11.40;6.18;;;;;;;16.27;75.21;101790.41;5116646;28;20035;-91
2023/05/14 07:44:42;;;;;;;20.35;12.23;;;;;;;16.03;73.44;101784.84;5116850;28;20371;-91
2023/05/14 07:47:07;;;;;;;15.03;8.67;;;;;;;15.96;75.71;101781.50;5116655;28;20060;-91
2023/05/14 07:49:33;;;;;;;20.67;11.97;;;;;;;15.88;73.84;101792.16;5117199;28;20073;-90
2023/05/14 07:51:58;;;;;;;21.77;13.50;;;;;;;15.45;75.52;101790.44;5116289;28;20020;-90
2023/05/14 07:54:24;;;;;;;20.57;12.63;;;;;;;15.24;77.75;101787.34;5098847;28;20024;-91
2023/05/14 07:56:49;;;;;;;20.03;12.20;;;;;;;15.26;77.32;101792.53;5096532;28;20388;-91
2023/05/14 07:59:14;;;;;;;18.77;11.30;;;;;;;15.13;77.84;101784.97;5095811;28;20032;-91
2023/05/14 08:01:40;;;;;;;14.33;8.37;;;;;;;15.33;78.35;101777.59;5096824;28;20016;-92
2023/05/14 08:04:06;;;;;;;17.77;9.82;;;;;;;15.52;77.51;101772.84;5096950;28;20049;-91
2023/05/14 08:06:31;;;;;;;14.30;8.50;;;;;;;15.68;77.27;101782.09;5096023;28;20027;-92
2023/05/14 08:08:56;;;;;;;10.37;6.27;;;;;;;15.94;77.39;101779.81;5096487;28;20016;-92
2023/05/14 08:11:22;;;;;;;17.87;10.60;;;;;;;16.02;74.91;101781.38;5095247;28;20031;-91
2023/05/14 08:13:47;;;;;;;19.17;10.50;;;;;;;16.00;74.91;101779.69;5096144;28;20115;-91
2023/05/14 08:16:12;;;;;;;17.20;9.67;;;;;;;16.11;73.75;101777.66;5096065;28;20031;-91
2023/05/14 08:18:37;;;;;;;17.27;9.10;;;;;;;16.27;75.08;101778.16;5096429;28;20032;-91
2023/05/14 08:21:03;;;;;;;12.80;7.17;;;;;;;16.46;75.59;101778.56;5095411;28;20082;-91
2023/05/14 08:23:28;;;;;;;11.83;7.00;;;;;;;16.67;72.73;101774.56;5106139;28;20028;-92
2023/05/14 08:25:53;;;;;;;9.90;6.23;;;;;;;16.73;74.53;101775.28;5116316;28;20028;-92
2023/05/14 08:28:19;;;;;;;12.30;7.40;;;;;;;16.65;72.18;101783.38;5115142;28;20054;-92
2023/05/14 08:30:44;;;;;;;15.57;8.60;;;;;;;16.54;72.46;101780.16;5116509;28;20051;-92
2023/05/14 08:33:10;;;;;;;17.47;10.07;;;;;;;16.33;72.36;101769.28;5115567;28;20103;-92
2023/05/14 08:35:35;;;;;;;18.67;11.30;;;;;;;16.17;71.13;101763.56;5115841;28;20024;-92
2023/05/14 08:38:00;;;;;;;17.33;9.87;;;;;;;16.17;72.93;101772.31;5116127;28;20065;-92
2023/05/14 08:40:25;;;;;;;15.60;8.17;;;;;;;16.35;73.44;101777.97;5115554;28;20027;-91
2023/05/14 08:42:51;;;;;;;18.77;10.33;;;;;;;16.55;69.43;101768.78;5116164;28;20454;-91
2023/05/14 08:45:19;;;;;;;19.58;11.90;;;;;;;16.54;69.62;101761.81;5115759;28;20332;-93
2023/05/14 08:47:49;;;;;;;17.80;9.15;;;;;;;16.70;71.77;101770.97;5115397;28;20034;-94
2023/05/14 08:50:15;;;;;;;14.52;8.35;;;;;;;16.96;70.44;101765.06;5116727;28;20519;-94
2023/05/14 08:52:40;;;;;;;19.38;11.20;;;;;;;17.00;68.74;101757.13;5115372;28;20058;-90
2023/05/14 08:55:07;;;;;;;17.80;10.30;;;;;;;17.12;68.84;101757.63;5094326;28;20468;-86
2023/05/14 08:57:33;;;;;;;15.68;8.80;;;;;;;17.31;71.05;101756.25;5100829;28;20023;-85
2023/05/14 08:59:59;;;;;;;11.50;6.93;;;;;;;17.67;71.70;101758.69;5108870;28;20045;-85
2023/05/14 09:02:29;;;;;;;11.27;6.38;;;;;;;18.06;67.62;101753.97;5113117;28;20100;-86
2023/05/14 09:04:57;;;;;;;8.52;5.57;;;;;;;18.29;70.57;101747.13;5114660;28;20028;-87
2023/05/14 09:07:23;;;;;;;10.48;6.53;;;;;;;18.46;67.73;101746.53;5114583;28;20460;-87
2023/05/14 09:09:49;;;;;;;7.73;5.07;;;;;;;18.64;67.49;101750.31;5114158;28;20026;-88
2023/05/14 09:12:15;;;;;;;;;;;;;;;18.84;65.20;101748.75;5115075;28;20020;-86
2023/05/14 09:14:40;;;;;;;16.43;9.33;;;;;;;18.75;61.74;101747.28;5115436;28;19912;-90
2023/05/14 09:17:06;;;;;;;10.27;6.57;;;;;;;18.80;64.44;101749.78;5114365;28;20035;-88
2023/05/14 09:19:32;;;;;;;14.27;8.05;;;;;;;18.77;63.96;101737.56;5109856;28;20039;-88
2023/05/14 09:22:00;;;;;;;13.57;7.57;;;;;;;18.79;65.13;101746.28;5092797;28;20029;-86
2023/05/14 09:24:29;;;;;;;12.40;7.22;;;;;;;18.94;63.78;101734.38;5087474;28;20473;-87
2023/05/14 09:26:57;;;;;;;15.10;8.68;;;;;;;18.82;62.40;101735.66;5086397;28;20043;-87
2023/05/14 09:29:27;;;;;;;11.70;6.82;;;;;;;18.94;61.21;101737.00;5094260;28;20028;-92
2023/05/14 09:31:53;;;;;;;17.27;8.43;;;;;;;18.89;62.94;101735.44;5092658;28;20115;-87
2023/05/14 09:34:25;;;;;;;13.93;7.63;;;;;;;18.90;62.60;101738.03;5091800;28;20028;-87
2023/05/14 09:36:56;;;;;;;17.52;9.18;;;;;;;18.88;62.00;101744.22;5092294;28;20036;-87
2023/05/14 09:39:23;;;;;;;17.20;8.63;;;;;;;18.92;61.27;101732.69;5093030;28;20024;-86
2023/05/14 09:41:50;;;;;;;14.27;8.10;;;;;;;18.81;62.47;101728.69;5093384;28;20024;-87
2023/05/14 09:44:16;;;;;;;10.60;6.32;;;;;;;18.98;63.48;101727.22;5092170;28;20024;-86
2023/05/14 09:46:41;;;;;;;11.77;6.90;;;;;;;19.19;62.28;101722.94;5092442;28;20034;-87
2023/05/14 09:49:09;;;;;;;8.90;5.30;;;;;;;19.40;63.02;101723.03;5092642;28;20047;-87
2023/05/14 09:51:36;;;;;;;11.25;6.60;;;;;;;19.59;59.82;101720.56;5092074;28;20107;-85
2023/05/14 09:54:03;;;;;;;12.65;7.05;;;;;;;19.61;58.95;101710.81;5100052;28;20042;-85
2023/05/14 09:56:31;;;;;;;13.00;6.95;;;;;;;19.66;59.35;101713.28;5114168;28;20024;-87
2023/05/14 09:58:57;;;;;;;15.73;8.52;;;;;;;19.64;58.34;101717.75;5094235;28;20107;-86
2023/05/14 10:01:23;;;;;;;12.63;7.23;;;;;;;19.73;58.60;101720.88;5093419;28;20056;-89
2023/05/14 10:03:49;;;;;;;;;;;;;;;19.73;59.94;101709.47;5094498;28;20062;-94
2023/05/14 10:06:21;;;;;;;10.98;5.97;;;;;;;19.86;61.01;101708.09;5096492;28;19908;-94
2023/05/14 10:08:48;;;;;;;13.98;6.90;;;;;;;19.98;58.77;101712.03;5096586;28;20096;-94
2023/05/14 10:11:26;;;;;;;12.23;6.78;;;;;;;19.99;58.79;101720.75;5086964;28;20022;-96
2023/05/14 10:14:16;;;;;;;10.43;5.78;;;;;;;20.12;55.47;101714.06;5088931;28;20024;-94
2023/05/14 10:16:49;;;;;;;11.90;5.82;;;;;;;20.12;54.86;101715.84;5099832;28;20048;-94
2023/05/14 10:19:17;;;;;;;11.77;6.20;;;;;;;20.14;57.74;101706.09;5098230;28;20016;-91
2023/05/14 10:21:51;;;;;;;7.03;4.82;;;;;;;20.35;58.92;101710.44;5093187;28;20054;-86
2023/05/14 10:24:18;;;;;;;8.60;5.43;;;;;;;20.56;56.17;101709.59;5094953;28;20021;-94
2023/05/14 10:26:44;;;;;;;6.47;4.03;;;;;;;20.74;55.43;101703.53;5099501;28;20020;-94
2023/05/14 10:29:10;;;;;;;8.13;4.38;;;;;;;20.92;55.66;101699.22;5098020;28;20043;-95
2023/05/14 10:31:54;;;;;;;7.90;5.00;;;;;;;21.03;51.90;101709.28;5101758;28;20024;-95
2023/05/14 10:34:39;;;;;;;11.13;5.80;;;;;;;20.92;56.33;101701.00;5099974;28;20050;-96
2023/05/14 10:37:10;;;;;;;6.93;4.55;;;;;;;21.07;56.63;101700.28;5101141;28;20111;-96
2023/05/14 10:39:53;;;;;;;5.82;3.88;;;;;;;21.34;54.48;101697.31;5100479;28;20024;-95
2023/05/14 10:42:21;;;;;;;8.45;5.22;;;;;;;21.44;52.17;101698.56;5097749;28;20058;-95
2023/05/14 10:45:00;;;;;;;8.77;5.80;;;;;;;21.29;52.33;101701.94;5102297;28;20055;-94
2023/05/14 10:47:31;;;;;;;10.77;5.90;;;;;;;21.14;50.62;101691.19;5105852;28;20023;-95
2023/05/14 10:50:02;;;;;;;8.25;4.47;;;;;;;21.23;55.50;101678.47;5098032;28;20058;-96
2023/05/14 10:52:28;;;;;;;4.43;3.58;;;;;;;21.51;54.94;101680.66;5093650;28;20025;-96
2023/05/14 10:54:58;;;;;;;6.40;4.40;;;;;;;21.69;54.82;101681.56;5079093;28;20526;-95
2023/05/14 10:57:26;;;;;;;5.07;3.83;;;;;;;21.91;54.79;101683.16;5084522;28;20473;-96
2023/05/14 10:59:55;;;;;;;4.85;3.53;;;;;;;22.10;52.69;101674.28;5082547;28;20032;-96
2023/05/14 11:02:32;;;;;;;3.65;3.25;;;;;;;22.32;53.46;101671.41;5094018;28;20073;-87
2023/05/14 11:05:02;;;;;;;3.92;3.05;;;;;;;22.49;54.15;101676.69;5116779;28;20035;-96
2023/05/14 11:07:33;;;;;;;3.38;3.03;;;;;;;22.71;54.27;101677.34;5128888;28;20030;-96
2023/05/14 11:10:01;;;;;;;4.85;3.00;;;;;;;22.83;48.88;101666.09;5139377;28;20024;-96
2023/05/14 11:12:27;;;;;;;3.28;2.90;;;;;;;23.01;54.28;101663.38;5113942;28;20027;-96
2023/05/14 11:14:55;;;;;;;;;;;;;;;22.89;50.74;101665.75;5101945;28;20034;-96
2023/05/14 11:17:20;;;;;;;7.63;4.40;;;;;;;22.87;48.45;101666.78;5100113;28;19971;-91
2023/05/14 11:19:46;;;;;;;8.67;4.73;;;;;;;22.82;44.90;101659.09;5102244;28;20036;-93
2023/05/14 11:22:12;;;;;;;10.90;5.40;;;;;;;22.49;43.66;101662.63;5096486;28;20421;-92
2023/05/14 11:24:38;;;;;;;6.88;4.30;;;;;;;22.38;46.79;101657.84;5097612;28;20024;-89